Minerva Astra — 9HDW7 — position and weather

sailwx.info

Track history (hours):
 
Tides and Currents Weather Stations Pressure Air Temp Water Temp Dewpoint Dewpoint Depression Visibility Wind Speed Wind Dir Waves Ship Positions

Minerva Astra

Last reported at 2014-Oct-30 03:14 UTC. Time now 2014-Oct-30 15:21 UTC.
Position N 40°10' W 031°29'.

Length 248 m; draft 12.4 m.

Type: Tanker. MMSI: 256703000.

Date/timePositionNaut miles runAvg speedWind from/ knotsBaromVisibWave heightAir tempDewpointWater temp
2014-Oct-30 03:14N 40°10' W 031°29'10 9.3
2014-Oct-30 02:06N 40°08' W 031°16'7 9.6
2014-Oct-30 01:25N 40°06' W 031°08'11 9.7
2014-Oct-30 00:16N 40°03' W 030°54'9 9.9
2014-Oct-29 23:19N 40°01' W 030°42'11 9.9
2014-Oct-29 22:10N 39°58' W 030°27'6 9.7
2014-Oct-29 21:33N 39°57' W 030°20'10 9.8
2014-Oct-29 20:33N 39°55' W 030°07'1010.3
2014-Oct-29 19:33N 39°52' W 029°54'1010.4
2014-Oct-29 18:33N 39°50' W 029°41'1010.3
2014-Oct-29 17:33N 39°47' W 029°28'1110.7
2014-Oct-29 16:33N 39°45' W 029°15'1110.7
2014-Oct-29 15:33N 39°42' W 029°01'1110.6
2014-Oct-29 14:33N 39°40' W 028°48'1010.1
2014-Oct-29 13:33N 39°37' W 028°35'1010.0
2014-Oct-29 12:33N 39°35' W 028°22'1110.5
2014-Oct-29 11:33N 39°32' W 028°09'1110.7
2014-Oct-29 10:33N 39°29' W 027°56'1010.5
2014-Oct-29 09:33N 39°27' W 027°43'1110.6
2014-Oct-29 08:33N 39°24' W 027°29'1111.0
2014-Oct-29 07:33N 39°22' W 027°15'7711.0
2014-Oct-29 00:33N 39°03' W 025°39'1110.8
2014-Oct-28 23:33N 39°01' W 025°26'1110.7
2014-Oct-28 22:33N 38°58' W 025°12'2210.7
2014-Oct-28 20:32N 38°53' W 024°45'1111.0
2014-Oct-28 19:32N 38°50' W 024°32'1111.4
2014-Oct-28 18:33N 38°48' W 024°18'1311.2
2014-Oct-28 17:23N 38°44' W 024°01'1111.3
2014-Oct-28 16:26N 38°42' W 023°48'46810.9
2014-Oct-26 21:28N 36°49' W 014°14'3511.4
2014-Oct-26 18:21N 36°40' W 013°31'2211.5
2014-Oct-26 16:27N 36°35' W 013°05'1211.4
2014-Oct-26 15:24N 36°32' W 012°50'2411.4
2014-Oct-26 13:14N 36°28' W 012°20'910.7
2014-Oct-26 12:26N 36°25' W 012°10'1211.2
2014-Oct-26 11:22N 36°21' W 011°56'30711.7
2014-Oct-25 09:08N 35°58' W 005°36'6 9.8
2014-Oct-25 08:33N 35°59' W 005°30'8 8.3
2014-Oct-25 07:33N 36°05' W 005°23'2 1.6
2014-Oct-25 06:28N 36°07' W 005°22'0 0.0
2014-Oct-25 02:31N 36°07' W 005°22'0 0.0
2014-Oct-25 01:28N 36°07' W 005°22'0 0.0
2014-Oct-25 00:31N 36°07' W 005°22'0 0.1
2014-Oct-24 23:31N 36°07' W 005°22'0 0.2
2014-Oct-24 22:28N 36°07' W 005°22'0 0.1
2014-Oct-24 21:31N 36°07' W 005°22'1 0.9
2014-Oct-24 20:29N 36°06' W 005°22'4 4.7
2014-Oct-24 19:33N 36°06' W 005°17'2 0.8
2014-Oct-24 16:24N 36°09' W 005°18'0 0.2
2014-Oct-24 15:30N 36°09' W 005°18'0 0.0
2014-Oct-24 04:27N 36°09' W 005°18'0 0.1
2014-Oct-24 03:33N 36°09' W 005°18'0 0.1
2014-Oct-24 02:18N 36°09' W 005°18'0 0.0
2014-Oct-24 00:12N 36°09' W 005°18'0 0.2
2014-Oct-23 23:34N 36°09' W 005°19'1 1.3
2014-Oct-23 22:33N 36°08' W 005°17'8 7.5
2014-Oct-23 21:30N 36°08' W 005°07'5 0.7
2014-Oct-23 15:18N 36°06' W 005°13'  
2014-Oct-21 09:05N 37°46' E 007°44'2311.9
2014-Oct-21 07:10N 37°50' E 008°12'812.2
2014-Oct-21 06:33N 37°51' E 008°22'1212.1
2014-Oct-21 05:33N 37°52' E 008°37'1212.0
2014-Oct-21 04:33N 37°54' E 008°52'1211.7
2014-Oct-21 03:33N 37°53' E 009°07'1211.8
2014-Oct-21 02:33N 37°51' E 009°21'1111.4
2014-Oct-21 01:33N 37°48' E 009°35'1311.4
2014-Oct-21 00:26N 37°42' E 009°50'1211.4
2014-Oct-20 23:21N 37°39' E 010°05'2310.7
2014-Oct-20 21:11N 37°35' E 010°34'  
Track history (hours):
 
Tides and Currents Weather Stations Pressure Air Temp Water Temp Dewpoint Dewpoint Depression Visibility Wind Speed Wind Dir Waves Ship Positions

Minerva Astra

Last reported at 2014-Oct-30 03:14 UTC. Time now 2014-Oct-30 15:21 UTC.
Position N 40°10' W 031°29'.

Length 248 m; draft 12.4 m.

Type: Tanker. MMSI: 256703000.

Date/timePositionNaut miles runAvg speedWind from/ knotsBaromVisibWave heightAir tempDewpointWater temp
2014-Oct-30 03:14N 40°10' W 031°29'10 9.3
2014-Oct-30 02:06N 40°08' W 031°16'7 9.6
2014-Oct-30 01:25N 40°06' W 031°08'11 9.7
2014-Oct-30 00:16N 40°03' W 030°54'9 9.9
2014-Oct-29 23:19N 40°01' W 030°42'11 9.9
2014-Oct-29 22:10N 39°58' W 030°27'6 9.7
2014-Oct-29 21:33N 39°57' W 030°20'10 9.8
2014-Oct-29 20:33N 39°55' W 030°07'1010.3
2014-Oct-29 19:33N 39°52' W 029°54'1010.4
2014-Oct-29 18:33N 39°50' W 029°41'1010.3
2014-Oct-29 17:33N 39°47' W 029°28'1110.7
2014-Oct-29 16:33N 39°45' W 029°15'1110.7
2014-Oct-29 15:33N 39°42' W 029°01'1110.6
2014-Oct-29 14:33N 39°40' W 028°48'1010.1
2014-Oct-29 13:33N 39°37' W 028°35'1010.0
2014-Oct-29 12:33N 39°35' W 028°22'1110.5
2014-Oct-29 11:33N 39°32' W 028°09'1110.7
2014-Oct-29 10:33N 39°29' W 027°56'1010.5
2014-Oct-29 09:33N 39°27' W 027°43'1110.6
2014-Oct-29 08:33N 39°24' W 027°29'1111.0
2014-Oct-29 07:33N 39°22' W 027°15'7711.0
2014-Oct-29 00:33N 39°03' W 025°39'1110.8
2014-Oct-28 23:33N 39°01' W 025°26'1110.7
2014-Oct-28 22:33N 38°58' W 025°12'2210.7
2014-Oct-28 20:32N 38°53' W 024°45'1111.0
2014-Oct-28 19:32N 38°50' W 024°32'1111.4
2014-Oct-28 18:33N 38°48' W 024°18'1311.2
2014-Oct-28 17:23N 38°44' W 024°01'1111.3
2014-Oct-28 16:26N 38°42' W 023°48'46810.9
2014-Oct-26 21:28N 36°49' W 014°14'3511.4
2014-Oct-26 18:21N 36°40' W 013°31'2211.5
2014-Oct-26 16:27N 36°35' W 013°05'1211.4
2014-Oct-26 15:24N 36°32' W 012°50'2411.4
2014-Oct-26 13:14N 36°28' W 012°20'910.7
2014-Oct-26 12:26N 36°25' W 012°10'1211.2
2014-Oct-26 11:22N 36°21' W 011°56'30711.7
2014-Oct-25 09:08N 35°58' W 005°36'6 9.8
2014-Oct-25 08:33N 35°59' W 005°30'8 8.3
2014-Oct-25 07:33N 36°05' W 005°23'2 1.6
2014-Oct-25 06:28N 36°07' W 005°22'0 0.0
2014-Oct-25 02:31N 36°07' W 005°22'0 0.0
2014-Oct-25 01:28N 36°07' W 005°22'0 0.0
2014-Oct-25 00:31N 36°07' W 005°22'0 0.1
2014-Oct-24 23:31N 36°07' W 005°22'0 0.2
2014-Oct-24 22:28N 36°07' W 005°22'0 0.1
2014-Oct-24 21:31N 36°07' W 005°22'1 0.9
2014-Oct-24 20:29N 36°06' W 005°22'4 4.7
2014-Oct-24 19:33N 36°06' W 005°17'2 0.8
2014-Oct-24 16:24N 36°09' W 005°18'0 0.2
2014-Oct-24 15:30N 36°09' W 005°18'0 0.0
2014-Oct-24 04:27N 36°09' W 005°18'0 0.1
2014-Oct-24 03:33N 36°09' W 005°18'0 0.1
2014-Oct-24 02:18N 36°09' W 005°18'0 0.0
2014-Oct-24 00:12N 36°09' W 005°18'0 0.2
2014-Oct-23 23:34N 36°09' W 005°19'1 1.3
2014-Oct-23 22:33N 36°08' W 005°17'8 7.5
2014-Oct-23 21:30N 36°08' W 005°07'5 0.7
2014-Oct-23 15:18N 36°06' W 005°13'  
2014-Oct-21 09:05N 37°46' E 007°44'2311.9
2014-Oct-21 07:10N 37°50' E 008°12'812.2
2014-Oct-21 06:33N 37°51' E 008°22'1212.1
2014-Oct-21 05:33N 37°52' E 008°37'1212.0
2014-Oct-21 04:33N 37°54' E 008°52'1211.7
2014-Oct-21 03:33N 37°53' E 009°07'1211.8
2014-Oct-21 02:33N 37°51' E 009°21'1111.4
2014-Oct-21 01:33N 37°48' E 009°35'1311.4
2014-Oct-21 00:26N 37°42' E 009°50'1211.4
2014-Oct-20 23:21N 37°39' E 010°05'2310.7
2014-Oct-20 21:11N 37°35' E 010°34'  

Dump ship's entire track history